createdAt,value
2022-11-05T00:00:55.208Z,200.30
2022-11-05T00:01:55.259Z,373.60
2022-11-05T00:02:55.169Z,224.80
2022-11-05T00:03:55.207Z,383.00
2022-11-05T00:04:55.168Z,192.10
2022-11-05T00:05:55.154Z,217.60
2022-11-05T00:06:55.157Z,378.90
2022-11-05T00:07:55.125Z,168.20
2022-11-05T00:08:55.101Z,355.10
2022-11-05T00:09:55.105Z,272.70
2022-11-05T00:10:55.093Z,113.60
2022-11-05T00:11:55.098Z,379.30
2022-11-05T00:12:55.059Z,391.20
2022-11-05T00:13:55.053Z,220.90
2022-11-05T00:14:55.039Z,321.60
2022-11-05T00:15:55.019Z,259.70
2022-11-05T00:16:55.031Z,363.40
2022-11-05T00:17:55.015Z,126.80
2022-11-05T00:18:54.978Z,375.20
2022-11-05T00:19:54.971Z,196.10
2022-11-05T00:20:54.966Z,376.30
2022-11-05T00:21:54.998Z,92.40
2022-11-05T00:22:54.941Z,377.00
2022-11-05T00:23:54.940Z,120.20
2022-11-05T00:24:54.935Z,163.90
2022-11-05T00:25:54.923Z,388.50
2022-11-05T00:26:54.934Z,483.30
2022-11-05T00:27:54.894Z,211.80
2022-11-05T00:28:54.903Z,374.10
2022-11-05T00:29:54.882Z,205.60
2022-11-05T00:30:54.845Z,373.20
2022-11-05T00:31:54.879Z,96.80
2022-11-05T00:32:54.831Z,377.80
2022-11-05T00:33:54.827Z,95.10
2022-11-05T00:34:54.814Z,375.60
2022-11-05T00:35:54.793Z,131.40
2022-11-05T00:36:54.816Z,378.90
2022-11-05T00:37:54.780Z,144.10
2022-11-05T00:38:54.784Z,153.10
2022-11-05T00:39:54.757Z,377.00
2022-11-05T00:40:54.754Z,102.60
2022-11-05T00:41:54.776Z,372.80
2022-11-05T00:42:54.716Z,250.80
2022-11-05T00:43:54.721Z,393.50
2022-11-05T00:44:54.684Z,313.20
2022-11-05T00:45:54.687Z,259.70
2022-11-05T00:46:59.628Z,113.00
2022-11-05T00:47:55.694Z,367.40
2022-11-05T00:48:54.641Z,104.40
2022-11-05T00:49:54.635Z,377.80
2022-11-05T00:50:54.646Z,120.10
2022-11-05T00:51:54.609Z,383.40
2022-11-05T00:52:54.618Z,151.20
2022-11-05T00:53:54.579Z,344.80
2022-11-05T00:54:54.560Z,399.50
2022-11-05T00:55:54.597Z,95.30
2022-11-05T00:56:54.555Z,381.30
2022-11-05T00:57:54.571Z,371.90
2022-11-05T00:58:54.533Z,245.60
2022-11-05T00:59:54.532Z,166.00
2022-11-05T01:00:54.506Z,375.20
2022-11-05T01:01:54.726Z,355.50
2022-11-05T01:02:54.644Z,279.40
2022-11-05T01:03:54.476Z,143.10
2022-11-05T01:04:54.469Z,383.80
2022-11-05T01:05:54.457Z,303.70
2022-11-05T01:06:54.431Z,300.00
2022-11-05T01:07:54.461Z,221.10
2022-11-05T01:08:54.420Z,290.60
2022-11-05T01:09:54.416Z,329.20
2022-11-05T01:10:54.396Z,130.10
2022-11-05T01:11:54.395Z,265.00
2022-11-05T01:12:54.427Z,370.40
2022-11-05T01:13:54.343Z,390.20
2022-11-05T01:14:54.349Z,99.30
2022-11-05T01:15:54.331Z,296.80
2022-11-05T01:16:54.361Z,285.20
2022-11-05T01:17:54.323Z,144.90
2022-11-05T01:18:54.297Z,313.30
2022-11-05T01:19:54.293Z,332.40
2022-11-05T01:20:54.281Z,89.00
2022-11-05T01:21:54.290Z,317.00
2022-11-05T01:22:54.250Z,339.20
2022-11-05T01:23:54.255Z,102.10
2022-11-05T01:24:54.233Z,313.00
2022-11-05T01:25:54.208Z,298.40
2022-11-05T01:26:54.235Z,167.30
2022-11-05T01:27:54.193Z,380.70
2022-11-05T01:28:54.263Z,183.90
2022-11-05T01:29:54.159Z,176.90
2022-11-05T01:30:54.147Z,372.60
2022-11-05T01:31:54.162Z,245.60
2022-11-05T01:32:54.127Z,119.20
2022-11-05T01:33:54.129Z,387.00
2022-11-05T01:34:54.114Z,215.00
2022-11-05T01:35:54.109Z,179.60
2022-11-05T01:36:54.135Z,342.50
2022-11-05T01:37:54.077Z,317.10
2022-11-05T01:38:54.058Z,355.00
2022-11-05T01:39:54.041Z,295.10
2022-11-05T01:40:54.056Z,185.80
2022-11-05T01:41:54.075Z,385.90
2022-11-05T01:42:54.055Z,116.30
2022-11-05T01:43:54.002Z,118.40
2022-11-05T01:44:53.987Z,392.20
2022-11-05T01:45:53.989Z,117.20
2022-11-05T01:46:54.023Z,380.00
2022-11-05T01:47:53.969Z,215.30
2022-11-05T01:48:58.572Z,325.60
2022-11-05T01:49:54.949Z,97.20
2022-11-05T01:50:53.938Z,387.00
2022-11-05T01:51:53.947Z,100.70
2022-11-05T01:52:53.920Z,385.00
2022-11-05T01:53:53.886Z,142.20
2022-11-05T01:54:53.903Z,377.90
2022-11-05T01:55:53.865Z,397.50
2022-11-05T01:56:53.898Z,260.50
2022-11-05T01:57:53.847Z,298.50
2022-11-05T01:58:53.843Z,267.90
2022-11-05T01:59:53.824Z,116.00
2022-11-05T02:00:53.819Z,348.10
2022-11-05T02:01:53.951Z,318.40
2022-11-05T02:02:53.965Z,199.60
2022-11-05T02:03:53.767Z,237.20
2022-11-05T02:04:53.786Z,234.40
2022-11-05T02:05:53.740Z,368.30
2022-11-05T02:06:53.766Z,448.10
2022-11-05T02:07:53.714Z,162.60
2022-11-05T02:08:53.707Z,388.70
2022-11-05T02:09:53.707Z,132.50
2022-11-05T02:10:53.697Z,380.70
2022-11-05T02:11:53.711Z,199.50
2022-11-05T02:12:53.678Z,365.80
2022-11-05T02:13:53.644Z,133.00
2022-11-05T02:14:53.656Z,389.40
2022-11-05T02:15:53.627Z,119.80
2022-11-05T02:16:53.658Z,366.60
2022-11-05T02:17:53.610Z,118.20
2022-11-05T02:18:53.608Z,390.60
2022-11-05T02:19:53.587Z,427.60
2022-11-05T02:20:53.598Z,114.50
2022-11-05T02:21:53.610Z,215.00
2022-11-05T02:22:53.552Z,336.90
2022-11-05T02:23:53.547Z,149.40
2022-11-05T02:24:53.532Z,121.10
2022-11-05T02:25:53.531Z,393.40
2022-11-05T02:26:53.573Z,110.10
2022-11-05T02:27:53.549Z,110.90
2022-11-05T02:28:53.505Z,386.10
2022-11-05T02:29:53.484Z,210.70
2022-11-05T02:30:53.469Z,130.00
2022-11-05T02:31:53.438Z,394.60
2022-11-05T02:32:53.470Z,334.60
2022-11-05T02:33:53.436Z,256.30
2022-11-05T02:34:53.434Z,136.30
2022-11-05T02:35:53.411Z,321.40
2022-11-05T02:36:53.410Z,241.30
2022-11-05T02:37:53.415Z,110.50
2022-11-05T02:38:53.381Z,260.10
2022-11-05T02:39:53.375Z,317.60
2022-11-05T02:40:53.362Z,344.00
2022-11-05T02:41:53.352Z,327.20
2022-11-05T02:42:53.354Z,195.70
2022-11-05T02:43:53.309Z,398.40
2022-11-05T02:44:53.290Z,184.60
2022-11-05T02:45:53.284Z,410.90
2022-11-05T02:46:53.308Z,149.50
2022-11-05T02:47:53.314Z,389.90
2022-11-05T02:48:53.279Z,212.40
2022-11-05T02:49:53.244Z,396.30
2022-11-05T02:50:53.249Z,130.40
2022-11-05T02:51:53.233Z,322.50
2022-11-05T02:52:53.252Z,231.10
2022-11-05T02:53:53.203Z,390.60
2022-11-05T02:54:53.188Z,158.20
2022-11-05T02:55:53.184Z,393.00
2022-11-05T02:56:53.194Z,223.60
2022-11-05T02:57:53.182Z,255.40
2022-11-05T02:58:53.156Z,125.00
2022-11-05T02:59:53.164Z,373.10
2022-11-05T03:00:53.141Z,122.60
2022-11-05T03:01:53.206Z,333.50
2022-11-05T03:02:53.186Z,292.40
2022-11-05T03:03:53.087Z,394.40
2022-11-05T03:04:53.090Z,116.10
2022-11-05T03:05:53.061Z,376.40
2022-11-05T03:06:53.099Z,173.10
2022-11-05T03:07:53.079Z,144.70
2022-11-05T03:08:53.036Z,374.20
2022-11-05T03:09:53.011Z,442.00
2022-11-05T03:10:53.019Z,182.80
2022-11-05T03:11:52.995Z,393.20
2022-11-05T03:12:53.038Z,136.00
2022-11-05T03:13:52.971Z,173.20
2022-11-05T03:14:52.972Z,369.20
2022-11-05T03:15:52.947Z,134.90
2022-11-05T03:16:52.936Z,169.80
2022-11-05T03:17:52.960Z,380.00
2022-11-05T03:18:52.925Z,118.20
2022-11-05T03:19:52.891Z,383.20
2022-11-05T03:20:52.886Z,244.50
2022-11-05T03:21:52.867Z,274.20
2022-11-05T03:22:52.901Z,354.10
2022-11-05T03:23:52.856Z,116.10
2022-11-05T03:24:52.850Z,389.80
2022-11-05T03:25:52.842Z,109.80
2022-11-05T03:26:52.825Z,372.50
2022-11-05T03:27:52.847Z,365.40
2022-11-05T03:28:52.802Z,307.50
2022-11-05T03:29:52.782Z,108.30
2022-11-05T03:30:52.794Z,375.30
2022-11-05T03:31:52.753Z,135.20
2022-11-05T03:32:52.795Z,367.30
2022-11-05T03:33:52.734Z,212.90
2022-11-05T03:34:52.755Z,135.40
2022-11-05T03:35:52.729Z,345.00
2022-11-05T03:36:52.720Z,310.40
2022-11-05T03:37:52.737Z,201.80
2022-11-05T03:38:52.698Z,164.60
2022-11-05T03:39:52.678Z,379.30
2022-11-05T03:40:52.661Z,459.10
2022-11-05T03:41:52.641Z,205.20
2022-11-05T03:42:52.672Z,401.50
2022-11-05T03:43:52.621Z,214.80
2022-11-05T03:44:52.622Z,289.60
2022-11-05T03:45:52.606Z,214.00
2022-11-05T03:46:52.591Z,352.30
2022-11-05T03:47:52.618Z,193.50
2022-11-05T03:48:52.628Z,254.10
2022-11-05T03:49:52.555Z,364.00
2022-11-05T03:50:52.555Z,451.30
2022-11-05T03:51:52.536Z,282.80
2022-11-05T03:52:52.609Z,277.60
2022-11-05T03:53:52.514Z,128.90
2022-11-05T03:54:52.512Z,396.00
2022-11-05T03:55:52.491Z,176.50
2022-11-05T03:56:52.487Z,348.60
2022-11-05T03:57:52.509Z,153.30
2022-11-05T03:58:57.678Z,395.00
2022-11-05T03:59:53.446Z,208.70
2022-11-05T04:00:52.427Z,312.60
2022-11-05T04:01:52.488Z,149.90
2022-11-05T04:02:52.558Z,357.60
2022-11-05T04:03:52.394Z,328.00
2022-11-05T04:04:52.390Z,314.90
2022-11-05T04:05:52.372Z,471.60
2022-11-05T04:06:52.360Z,163.50
2022-11-05T04:07:52.380Z,381.70
2022-11-05T04:08:52.342Z,127.00
2022-11-05T04:09:52.323Z,360.90
2022-11-05T04:10:52.321Z,148.60
2022-11-05T04:11:52.305Z,373.50
2022-11-05T04:12:52.327Z,167.20
2022-11-05T04:13:52.282Z,383.00
2022-11-05T04:14:52.270Z,268.90
2022-11-05T04:15:52.260Z,469.80
2022-11-05T04:16:52.251Z,220.40
2022-11-05T04:17:52.272Z,203.70
2022-11-05T04:18:52.326Z,368.80
2022-11-05T04:19:52.207Z,274.80
2022-11-05T04:20:52.205Z,462.60
2022-11-05T04:21:52.179Z,182.10
2022-11-05T04:22:52.209Z,348.50
2022-11-05T04:23:52.169Z,216.70
2022-11-05T04:24:52.156Z,387.70
2022-11-05T04:25:52.152Z,283.90
2022-11-05T04:26:52.139Z,209.20
2022-11-05T04:27:52.150Z,462.10
2022-11-05T04:28:52.117Z,149.60
2022-11-05T04:29:52.098Z,314.20
2022-11-05T04:30:52.090Z,340.30
2022-11-05T04:31:52.070Z,510.10
2022-11-05T04:32:52.106Z,219.00
2022-11-05T04:33:52.048Z,336.20
2022-11-05T04:34:52.043Z,494.50
2022-11-05T04:35:52.033Z,203.20
2022-11-05T04:36:52.033Z,302.00
2022-11-05T04:37:52.030Z,335.90
2022-11-05T04:38:52.038Z,302.40
2022-11-05T04:39:51.966Z,303.10
2022-11-05T04:40:51.966Z,113.90
2022-11-05T04:41:51.946Z,402.70
2022-11-05T04:42:51.942Z,116.80
2022-11-05T04:43:51.969Z,385.70
2022-11-05T04:44:51.925Z,175.90
2022-11-05T04:45:51.905Z,396.60
2022-11-05T04:46:51.907Z,234.80
2022-11-05T04:47:51.891Z,438.50
2022-11-05T04:48:51.920Z,267.90
2022-11-05T04:49:51.870Z,459.90
2022-11-05T04:50:51.866Z,164.60
2022-11-05T04:51:51.848Z,399.50
2022-11-05T04:52:51.834Z,145.80
2022-11-05T04:53:51.851Z,210.10
2022-11-05T04:54:51.816Z,394.80
2022-11-05T04:55:51.818Z,152.70
2022-11-05T04:56:51.798Z,394.40
2022-11-05T04:57:51.765Z,234.40
2022-11-05T04:58:51.822Z,255.30
2022-11-05T04:59:51.779Z,299.40
2022-11-05T05:00:51.793Z,462.10
2022-11-05T05:01:51.752Z,111.10
2022-11-05T05:02:51.736Z,379.00
2022-11-05T05:03:51.763Z,141.70
2022-11-05T05:04:51.710Z,184.10
2022-11-05T05:05:53.837Z,372.20
2022-11-05T05:06:51.671Z,151.90
2022-11-05T05:07:51.659Z,116.00
2022-11-05T05:08:51.687Z,419.70
2022-11-05T05:09:51.657Z,409.40
2022-11-05T05:10:51.666Z,177.80
2022-11-05T05:11:51.629Z,411.20
2022-11-05T05:12:51.615Z,124.90
2022-11-05T05:13:51.640Z,327.60
2022-11-05T05:14:51.579Z,272.50
2022-11-05T05:15:51.595Z,477.60
2022-11-05T05:16:51.575Z,169.40
2022-11-05T05:17:51.575Z,166.50
2022-11-05T05:18:51.571Z,378.10
2022-11-05T05:19:51.535Z,144.00
2022-11-05T05:20:51.533Z,438.80
2022-11-05T05:21:51.502Z,143.80
2022-11-05T05:22:51.521Z,254.70
2022-11-05T05:23:51.561Z,298.90
2022-11-05T05:24:52.913Z,278.10
2022-11-05T05:25:51.495Z,273.40
2022-11-05T05:26:51.473Z,340.30
2022-11-05T05:27:51.457Z,178.30
2022-11-05T05:28:51.492Z,394.30
2022-11-05T05:29:51.445Z,234.20
2022-11-05T05:30:56.146Z,331.50
2022-11-05T05:31:52.406Z,438.90
2022-11-05T05:32:51.390Z,217.00
2022-11-05T05:33:51.433Z,288.30
2022-11-05T05:34:51.377Z,324.30
2022-11-05T05:35:51.363Z,138.10
2022-11-05T05:36:51.349Z,386.80
2022-11-05T05:37:51.337Z,238.40
2022-11-05T05:38:51.367Z,326.70
2022-11-05T05:39:51.321Z,482.90
2022-11-05T05:40:51.289Z,191.20
2022-11-05T05:41:51.302Z,182.30
2022-11-05T05:42:51.254Z,363.00
2022-11-05T05:43:51.285Z,242.00
2022-11-05T05:44:51.238Z,452.40
2022-11-05T05:45:51.230Z,142.90
2022-11-05T05:46:51.236Z,360.10
2022-11-05T05:47:51.225Z,215.70
2022-11-05T05:48:51.229Z,310.90
2022-11-05T05:49:51.194Z,483.20
2022-11-05T05:50:51.193Z,460.70
2022-11-05T05:51:51.183Z,127.80
2022-11-05T05:52:51.158Z,332.20
2022-11-05T05:53:51.190Z,458.90
2022-11-05T05:54:51.125Z,407.30
2022-11-05T05:55:51.123Z,167.70
2022-11-05T05:56:51.100Z,356.70
2022-11-05T05:57:51.093Z,250.80
2022-11-05T05:58:51.120Z,281.30
2022-11-05T05:59:51.077Z,474.00
2022-11-05T06:00:51.058Z,131.90
2022-11-05T06:01:51.144Z,340.20
2022-11-05T06:02:51.081Z,193.60
2022-11-05T06:03:51.061Z,409.60
2022-11-05T06:04:51.013Z,160.70
2022-11-05T06:05:51.022Z,255.70
2022-11-05T06:06:50.993Z,291.80
2022-11-05T06:07:50.988Z,131.40
2022-11-05T06:08:51.002Z,337.60
2022-11-05T06:09:50.983Z,348.70
2022-11-05T06:10:50.995Z,402.90
2022-11-05T06:11:50.935Z,77.00
2022-11-05T06:12:50.924Z,243.40
2022-11-05T06:13:50.943Z,201.50
2022-11-05T06:14:50.902Z,375.20
2022-11-05T06:15:50.892Z,57.40
2022-11-05T06:16:50.871Z,256.10
2022-11-05T06:17:50.868Z,186.80
2022-11-05T06:18:50.884Z,238.20
2022-11-05T06:19:50.845Z,153.70
2022-11-05T06:20:50.819Z,101.80
2022-11-05T06:21:50.818Z,294.00
2022-11-05T06:22:50.804Z,390.70
2022-11-05T06:23:50.818Z,67.20
2022-11-05T06:24:50.784Z,337.80
2022-11-05T06:25:50.771Z,75.40
2022-11-05T06:26:50.758Z,278.10
2022-11-05T06:27:50.756Z,130.50
2022-11-05T06:28:50.768Z,235.70
2022-11-05T06:29:50.733Z,366.90
2022-11-05T06:30:50.724Z,59.20
2022-11-05T06:31:50.711Z,282.70
2022-11-05T06:32:50.692Z,349.20
2022-11-05T06:33:50.720Z,91.90
2022-11-05T06:34:50.674Z,168.60
2022-11-05T06:35:50.684Z,329.90
2022-11-05T06:36:50.643Z,313.50
2022-11-05T06:37:50.647Z,63.50
2022-11-05T06:38:50.626Z,303.20
2022-11-05T06:39:50.660Z,136.20
2022-11-05T06:40:50.619Z,344.90
2022-11-05T06:42:16.677Z,60.60
2022-11-05T06:42:51.579Z,177.60
2022-11-05T06:43:50.587Z,205.50
2022-11-05T06:44:50.605Z,58.00
2022-11-05T06:45:50.557Z,307.20
2022-11-05T06:46:50.534Z,172.50
2022-11-05T06:47:50.521Z,297.60
2022-11-05T06:48:50.502Z,64.80
2022-11-05T06:49:50.534Z,189.50
2022-11-05T06:50:50.479Z,247.50
2022-11-05T06:51:50.483Z,63.20
2022-11-05T06:52:50.468Z,263.80
2022-11-05T06:53:50.448Z,64.60
2022-11-05T06:54:50.493Z,214.10
2022-11-05T06:55:50.444Z,61.20
2022-11-05T06:56:50.413Z,113.10
2022-11-05T06:57:50.403Z,173.30
2022-11-05T06:58:50.396Z,74.80
2022-11-05T06:59:50.407Z,112.70
2022-11-05T07:00:50.428Z,238.70
2022-11-05T07:01:50.375Z,107.20
2022-11-05T07:02:50.355Z,126.30
2022-11-05T07:03:50.337Z,222.40
2022-11-05T07:04:50.356Z,196.70
2022-11-05T07:05:50.330Z,129.60
2022-11-05T07:06:50.303Z,116.50
2022-11-05T07:07:50.293Z,213.20
2022-11-05T07:08:50.284Z,200.00
2022-11-05T07:09:50.306Z,135.10
2022-11-05T07:10:50.258Z,107.60
2022-11-05T07:11:50.261Z,193.90
2022-11-05T07:12:50.228Z,195.20
2022-11-05T07:13:50.231Z,136.00
2022-11-05T07:14:50.248Z,81.20
2022-11-05T07:15:50.201Z,96.80
2022-11-05T07:16:50.191Z,117.50
2022-11-05T07:17:50.192Z,193.70
2022-11-05T07:18:50.164Z,202.00
2022-11-05T07:19:50.184Z,159.80
2022-11-05T07:20:50.137Z,102.30
2022-11-05T07:21:50.144Z,91.80
2022-11-05T07:22:50.129Z,71.80
2022-11-05T07:23:50.113Z,215.60
2022-11-05T07:24:50.133Z,228.70
2022-11-05T07:25:50.085Z,174.00
2022-11-05T07:26:50.071Z,181.20
2022-11-05T07:27:50.063Z,243.90
2022-11-05T07:28:50.052Z,164.80
2022-11-05T07:29:50.079Z,180.20
2022-11-05T07:30:50.025Z,139.70
2022-11-05T07:31:50.024Z,128.60
2022-11-05T07:32:50.011Z,75.80
2022-11-05T07:33:50.003Z,125.10
2022-11-05T07:34:50.027Z,213.70
2022-11-05T07:35:49.998Z,250.10
2022-11-05T07:36:49.962Z,91.00
2022-11-05T07:37:49.954Z,117.60
2022-11-05T07:38:49.932Z,111.70
2022-11-05T07:39:49.954Z,210.50
2022-11-05T07:40:49.948Z,197.00
2022-11-05T07:41:49.907Z,170.20
2022-11-05T07:42:49.889Z,120.00
2022-11-05T07:43:49.887Z,110.00
2022-11-05T07:44:49.878Z,120.40
2022-11-05T07:45:49.903Z,184.40
2022-11-05T07:46:49.852Z,256.60
2022-11-05T07:47:49.838Z,207.70
2022-11-05T07:48:49.828Z,235.80
2022-11-05T07:49:49.814Z,259.40
2022-11-05T07:50:49.838Z,318.40
2022-11-05T07:51:49.809Z,373.60
2022-11-05T07:52:49.763Z,469.30
2022-11-05T07:53:49.781Z,471.10
2022-11-05T07:54:49.760Z,212.60
2022-11-05T07:55:49.780Z,170.30
2022-11-05T07:56:49.737Z,396.40
2022-11-05T07:57:49.727Z,999.90
2022-11-05T07:58:49.715Z,999.90
2022-11-05T07:59:49.707Z,999.90
2022-11-05T08:00:49.867Z,999.90
2022-11-05T08:01:49.892Z,140.30
2022-11-05T08:02:49.905Z,279.90
2022-11-05T08:03:49.653Z,178.80
2022-11-05T08:04:49.644Z,283.40
2022-11-05T08:05:49.668Z,124.40
2022-11-05T08:06:49.612Z,249.50
2022-11-05T08:07:49.614Z,667.70
2022-11-05T08:08:49.603Z,324.70
2022-11-05T08:09:49.594Z,106.00
2022-11-05T08:10:49.616Z,411.00
2022-11-05T08:11:52.238Z,564.40
2022-11-05T08:12:49.555Z,590.00
2022-11-05T08:13:49.552Z,999.90
2022-11-05T08:14:49.532Z,999.90
2022-11-05T08:15:49.577Z,999.90
2022-11-05T08:16:49.528Z,999.90
2022-11-05T08:17:49.491Z,999.90
2022-11-05T08:18:49.499Z,999.90
2022-11-05T08:19:49.467Z,999.90
2022-11-05T08:20:49.487Z,999.90
2022-11-05T08:21:49.445Z,999.90
2022-11-05T08:22:49.443Z,999.90
2022-11-05T08:23:49.430Z,999.90
2022-11-05T08:24:49.453Z,999.90
2022-11-05T08:25:49.449Z,999.90
2022-11-05T08:26:49.391Z,999.90
2022-11-05T08:27:49.383Z,999.90
2022-11-05T08:28:49.369Z,999.90
2022-11-05T08:29:49.360Z,999.90
2022-11-05T08:30:49.381Z,999.90
2022-11-05T08:31:49.338Z,999.90
2022-11-05T08:32:49.328Z,999.90
2022-11-05T08:33:49.332Z,47.30
2022-11-05T08:34:49.308Z,288.20
2022-11-05T08:35:49.433Z,448.60
2022-11-05T08:36:49.279Z,549.50
2022-11-05T08:37:49.265Z,562.70
2022-11-05T08:38:49.267Z,602.30
2022-11-05T08:39:49.253Z,720.20
2022-11-05T08:40:49.272Z,999.90
2022-11-05T08:41:49.233Z,999.90
2022-11-05T08:42:49.220Z,999.90
2022-11-05T08:43:49.214Z,999.90
2022-11-05T08:44:49.197Z,999.90
2022-11-05T08:45:49.223Z,30.50
2022-11-05T08:46:49.172Z,435.40
2022-11-05T08:47:49.169Z,462.10
2022-11-05T08:48:49.155Z,589.10
2022-11-05T08:49:49.149Z,999.90
2022-11-05T08:50:49.155Z,999.90
2022-11-05T08:51:49.132Z,999.90
2022-11-05T08:52:49.096Z,93.90
2022-11-05T08:53:49.095Z,999.90
2022-11-05T08:54:49.094Z,999.90
2022-11-05T08:55:49.102Z,999.90
2022-11-05T08:56:49.055Z,999.90
2022-11-05T08:57:49.048Z,999.90
2022-11-05T08:58:49.024Z,999.90
2022-11-05T08:59:49.012Z,999.90
2022-11-05T09:00:49.082Z,86.50
2022-11-05T09:01:49.159Z,253.70
2022-11-05T09:02:49.018Z,181.70
2022-11-05T09:03:48.982Z,999.90
2022-11-05T09:04:48.983Z,214.50
2022-11-05T09:05:48.957Z,999.90
2022-11-05T09:06:48.980Z,646.00
2022-11-05T09:07:48.933Z,999.90
2022-11-05T09:08:48.920Z,984.90
2022-11-05T09:09:48.906Z,498.20
2022-11-05T09:10:48.903Z,624.20
2022-11-05T09:12:13.390Z,599.80
2022-11-05T09:12:49.874Z,710.70
2022-11-05T09:13:48.874Z,324.30
2022-11-05T09:14:48.863Z,999.90
2022-11-05T09:15:48.838Z,999.90
2022-11-05T09:16:48.854Z,999.90
2022-11-05T09:17:48.816Z,999.90
2022-11-05T09:18:48.817Z,999.90
2022-11-05T09:19:48.810Z,999.90
2022-11-05T09:20:48.793Z,999.90
2022-11-05T09:21:48.809Z,999.90
2022-11-05T09:22:48.757Z,999.90
2022-11-05T09:23:48.750Z,999.90
2022-11-05T09:24:48.733Z,999.90
2022-11-05T09:25:48.727Z,999.90
2022-11-05T09:26:48.748Z,999.90
2022-11-05T09:27:48.718Z,999.90
2022-11-05T09:28:48.685Z,999.90
2022-11-05T09:29:48.673Z,999.90
2022-11-05T09:30:48.669Z,823.80
2022-11-05T09:31:48.687Z,904.60
2022-11-05T09:32:48.643Z,791.20
2022-11-05T09:33:48.636Z,362.00
2022-11-05T09:34:48.628Z,999.90
2022-11-05T09:35:48.613Z,999.90
2022-11-05T09:36:48.631Z,999.90
2022-11-05T09:37:48.586Z,999.90
2022-11-05T09:38:48.572Z,999.90
2022-11-05T09:39:48.556Z,999.90
2022-11-05T09:40:48.551Z,999.90
2022-11-05T09:41:48.565Z,999.90
2022-11-05T09:42:48.525Z,999.90
2022-11-05T09:43:48.507Z,999.90
2022-11-05T09:44:48.504Z,999.90
2022-11-05T09:45:48.494Z,999.90
2022-11-05T09:46:48.518Z,999.90
2022-11-05T09:47:48.497Z,999.90
2022-11-05T09:48:48.463Z,999.90
2022-11-05T09:49:48.451Z,999.90
2022-11-05T09:50:48.453Z,999.90
2022-11-05T09:51:48.463Z,999.90
2022-11-05T09:52:48.425Z,999.90
2022-11-05T09:53:48.414Z,999.90
2022-11-05T09:54:48.397Z,999.90
2022-11-05T09:55:48.384Z,999.90
2022-11-05T09:56:48.394Z,999.90
2022-11-05T09:57:48.393Z,999.90
2022-11-05T09:58:48.366Z,999.90
2022-11-05T09:59:48.347Z,999.90
2022-11-05T10:00:48.383Z,999.90
2022-11-05T10:01:48.513Z,999.90
2022-11-05T10:02:48.350Z,999.90
2022-11-05T10:03:48.297Z,999.90
2022-11-05T10:04:48.289Z,999.90
2022-11-05T10:05:48.315Z,999.90
2022-11-05T10:06:48.277Z,999.90
2022-11-05T10:07:48.285Z,999.90
2022-11-05T10:08:48.238Z,999.90
2022-11-05T10:09:48.223Z,999.90
2022-11-05T10:10:48.217Z,999.90
2022-11-05T10:11:48.205Z,999.90
2022-11-05T10:12:48.230Z,999.90
2022-11-05T10:13:48.182Z,999.90
2022-11-05T10:14:48.178Z,999.90
2022-11-05T10:15:48.281Z,999.90
2022-11-05T10:16:48.160Z,999.90
2022-11-05T10:17:48.167Z,999.90
2022-11-05T10:18:48.126Z,999.90
2022-11-05T10:19:48.101Z,999.90
2022-11-05T10:20:48.111Z,999.90
2022-11-05T10:22:49.838Z,999.90
2022-11-05T10:23:48.075Z,999.90
2022-11-05T10:24:48.068Z,999.90
2022-11-05T10:25:48.050Z,999.90
2022-11-05T10:26:48.044Z,999.90
2022-11-05T10:27:48.059Z,999.90
2022-11-05T10:28:48.038Z,999.90
2022-11-05T10:29:48.004Z,999.90
2022-11-05T10:30:47.996Z,999.90
2022-11-05T10:31:47.984Z,999.90
2022-11-05T10:32:48.038Z,999.90
2022-11-05T10:33:47.957Z,999.90
2022-11-05T10:34:47.948Z,999.90
2022-11-05T10:35:47.938Z,378.60
2022-11-05T10:36:47.929Z,999.90
2022-11-05T10:37:47.949Z,999.90
2022-11-05T10:38:47.909Z,924.80
2022-11-05T10:39:47.893Z,167.10
2022-11-05T10:40:47.874Z,14.30
2022-11-05T10:41:47.873Z,16.20
2022-11-05T10:42:47.890Z,17.10
2022-11-05T10:43:47.849Z,20.10
2022-11-05T10:44:47.843Z,16.90
2022-11-05T10:45:47.828Z,15.00
2022-11-05T10:46:47.816Z,15.50
2022-11-05T10:47:47.834Z,10.10
2022-11-05T10:48:47.788Z,11.40
2022-11-05T10:49:47.780Z,10.00
2022-11-05T10:50:47.773Z,9.10
2022-11-05T10:51:47.762Z,9.70
2022-11-05T10:52:47.755Z,10.40
2022-11-05T10:53:47.775Z,9.80
2022-11-05T10:54:47.723Z,9.70
2022-11-05T10:55:47.706Z,9.10
2022-11-05T10:56:47.693Z,8.50
2022-11-05T10:57:47.682Z,8.70
2022-11-05T10:58:47.715Z,8.50
2022-11-05T10:59:47.656Z,9.40
2022-11-05T11:00:47.726Z,9.00
2022-11-05T11:01:47.793Z,9.80
2022-11-05T11:02:47.655Z,9.50
2022-11-05T11:03:47.678Z,9.90
2022-11-05T11:04:47.622Z,9.70
2022-11-05T11:05:47.593Z,8.60
2022-11-05T11:06:47.610Z,8.50
2022-11-05T11:07:47.587Z,9.40
2022-11-05T11:08:47.622Z,9.80
2022-11-05T11:10:58.865Z,145.30
2022-11-05T11:11:58.828Z,136.60
2022-11-05T11:12:58.792Z,15.10
2022-11-05T11:13:58.840Z,39.30
2022-11-05T11:14:58.785Z,9.30
2022-11-05T11:15:58.768Z,9.00
2022-11-05T11:16:58.759Z,10.70
2022-11-05T11:17:58.770Z,10.50
2022-11-05T11:18:58.816Z,11.00
2022-11-05T11:19:58.743Z,12.20
2022-11-05T11:20:58.720Z,13.80
2022-11-05T11:21:58.703Z,13.10
2022-11-05T11:22:58.709Z,12.70
2022-11-05T11:23:58.733Z,12.90
2022-11-05T11:24:58.687Z,14.60
2022-11-05T11:25:58.669Z,21.00
2022-11-05T11:26:58.652Z,74.60
2022-11-05T11:27:58.668Z,999.90
2022-11-05T11:28:58.670Z,999.90
2022-11-05T11:29:58.624Z,999.90
2022-11-05T11:30:58.617Z,999.90
2022-11-05T11:31:58.618Z,999.90
2022-11-05T11:32:58.604Z,999.90
2022-11-05T11:33:58.617Z,999.90
2022-11-05T11:34:58.583Z,450.80
2022-11-05T11:35:58.557Z,49.70
2022-11-05T11:36:58.542Z,42.20
2022-11-05T11:37:58.514Z,48.40
2022-11-05T11:38:58.538Z,229.60
2022-11-05T11:39:58.494Z,999.90
2022-11-05T11:40:58.482Z,999.90
2022-11-05T11:41:58.488Z,999.90
2022-11-05T11:42:58.497Z,999.90
2022-11-05T11:43:58.539Z,999.90
2022-11-05T11:44:58.453Z,999.90
2022-11-05T11:46:04.660Z,999.90
2022-11-05T11:46:59.431Z,368.20
2022-11-05T11:47:58.420Z,58.60
2022-11-05T11:48:58.407Z,90.00
2022-11-05T11:49:58.455Z,13.50
2022-11-05T11:50:58.391Z,10.70
2022-11-05T11:51:58.370Z,12.20
2022-11-05T11:52:58.361Z,11.20
2022-11-05T11:53:58.351Z,10.50
2022-11-05T11:54:58.375Z,9.30
2022-11-05T11:55:58.332Z,8.80
2022-11-05T11:56:58.309Z,9.10
2022-11-05T11:57:58.301Z,9.10
2022-11-05T11:58:58.282Z,9.10
2022-11-05T12:00:13.683Z,8.60
2022-11-05T12:00:59.256Z,9.50
2022-11-05T12:01:58.400Z,10.30
2022-11-05T12:03:01.910Z,9.70
2022-11-05T12:03:58.249Z,9.10
2022-11-05T12:04:58.281Z,9.20
2022-11-05T12:05:58.199Z,9.10
2022-11-05T12:06:58.216Z,10.30
2022-11-05T12:07:58.215Z,9.70
2022-11-05T12:09:03.572Z,9.30
2022-11-05T12:09:59.198Z,8.00
2022-11-05T12:10:58.176Z,7.50
2022-11-05T12:11:58.152Z,7.60
2022-11-05T12:12:58.161Z,7.60
2022-11-05T12:13:58.130Z,8.70
2022-11-05T12:14:58.169Z,9.20
2022-11-05T12:15:58.092Z,10.10
2022-11-05T12:16:58.081Z,8.80
2022-11-05T12:17:58.058Z,8.70
2022-11-05T12:18:58.065Z,8.30
2022-11-05T12:19:58.054Z,8.20
2022-11-05T12:20:58.598Z,8.40
2022-11-05T12:21:58.028Z,7.80
2022-11-05T12:22:58.032Z,8.10
2022-11-05T12:23:58.004Z,7.80
2022-11-05T12:24:58.013Z,8.20
2022-11-05T12:25:58.023Z,8.30
2022-11-05T12:26:57.990Z,8.00
2022-11-05T12:27:57.965Z,8.30
2022-11-05T12:29:17.826Z,8.30
2022-11-05T12:29:58.971Z,8.20
2022-11-05T12:30:57.950Z,8.40
2022-11-05T12:31:57.909Z,8.70
2022-11-05T12:32:57.980Z,8.60
2022-11-05T12:33:57.908Z,8.30
2022-11-05T12:34:57.945Z,8.70
2022-11-05T12:35:58.223Z,8.50
2022-11-05T12:36:57.886Z,8.90